Time;durP1;ratioP1;P1;durP2;ratioP2;P2;SDS_P1;SDS_P2;PMS_P1;PMS_P2;Temp;Humidity;BMP_temperature;BMP_pressure;BME280_temperature;BME280_humidity;BME280_pressure;Samples;Min_cycle;Max_cycle;Signal;HPM_P1;HPM_P2
2022/05/02 00:00:06;;;;;;;2.90;2.60;;;4.10;99.90;;;;;;5030155;28;20037;-68
2022/05/02 00:02:34;;;;;;;2.20;2.00;;;4.00;99.90;;;;;;5027364;28;20060;-68
2022/05/02 00:05:02;;;;;;;3.58;2.60;;;4.00;99.90;;;;;;5027463;28;20430;-67
2022/05/02 00:07:29;;;;;;;2.55;1.80;;;3.90;99.90;;;;;;5027547;28;20056;-68
2022/05/02 00:09:56;;;;;;;2.78;1.92;;;3.90;99.90;;;;;;5026450;28;21098;-65
2022/05/02 00:12:23;;;;;;;2.20;1.80;;;3.80;99.90;;;;;;5023151;28;20152;-65
2022/05/02 00:14:50;;;;;;;4.00;1.98;;;3.80;99.90;;;;;;5024586;28;20177;-68
2022/05/02 00:17:17;;;;;;;1.98;1.30;;;3.80;99.90;;;;;;5024494;28;20041;-66
2022/05/02 00:19:44;;;;;;;2.15;1.60;;;3.80;99.90;;;;;;5026385;28;20052;-65
2022/05/02 00:22:10;;;;;;;2.35;1.52;;;3.70;99.90;;;;;;5023085;28;20790;-68
2022/05/02 00:24:37;;;;;;;2.28;1.58;;;3.70;99.90;;;;;;5025723;28;20971;-65
2022/05/02 00:27:05;;;;;;;1.60;1.42;;;3.70;99.90;;;;;;5028457;28;20166;-65
2022/05/02 00:29:32;;;;;;;2.10;1.50;;;3.70;99.90;;;;;;5028907;28;20140;-68
2022/05/02 00:31:59;;;;;;;2.45;2.25;;;3.70;99.90;;;;;;5039392;28;20062;-64
2022/05/02 00:34:26;;;;;;;2.72;2.53;;;3.70;99.90;;;;;;5023278;28;20758;-67
2022/05/02 00:36:53;;;;;;;6.63;2.40;;;3.60;99.90;;;;;;5027448;28;20336;-68
2022/05/02 00:39:20;;;;;;;5.95;2.85;;;3.60;99.90;;;;;;5025284;28;20193;-65
2022/05/02 00:41:47;;;;;;;3.63;2.33;;;3.60;99.90;;;;;;5026374;28;20055;-66
2022/05/02 00:44:13;;;;;;;3.80;2.45;;;3.60;99.90;;;;;;5025050;28;21167;-67
2022/05/02 00:46:41;;;;;;;4.30;2.58;;;3.60;99.90;;;;;;5026559;28;20059;-66
2022/05/02 00:49:08;;;;;;;5.70;2.63;;;3.60;99.90;;;;;;5027711;28;20045;-67
2022/05/02 00:51:35;;;;;;;5.97;2.88;;;3.60;99.90;;;;;;5028214;28;20048;-69
2022/05/02 00:54:02;;;;;;;4.57;2.97;;;3.60;99.90;;;;;;5028706;28;20052;-64
2022/05/02 00:56:30;;;;;;;4.25;2.55;;;3.50;99.90;;;;;;5026525;28;20135;-66
2022/05/02 00:59:00;;;;;;;7.38;3.05;;;3.50;99.90;;;;;;5027389;28;20140;-69
2022/05/02 01:01:26;;;;;;;5.05;2.38;;;3.50;99.90;;;;;;5029518;28;20048;-70
2022/05/02 01:03:55;;;;;;;4.63;2.90;;;3.50;99.90;;;;;;5028713;28;20065;-65
2022/05/02 01:09:09;;;;;;;3.60;1.75;;;3.60;99.90;;;;;;5029361;28;20049;-66
2022/05/02 01:11:36;;;;;;;4.68;1.85;;;3.60;99.90;;;;;;5027914;28;20099;-66
2022/05/02 01:14:08;;;;;;;4.22;1.63;;;3.60;99.90;;;;;;5028525;28;20235;-64
2022/05/02 01:16:35;;;;;;;1.88;1.42;;;3.70;99.90;;;;;;5026979;28;20048;-65
2022/05/02 01:19:02;;;;;;;1.23;0.90;;;3.70;99.90;;;;;;5027710;28;20079;-66
2022/05/02 01:21:30;;;;;;;1.13;1.02;;;3.80;99.90;;;;;;5027954;28;20043;-68
2022/05/02 01:24:04;;;;;;;1.40;1.10;;;4.00;99.90;;;;;;5027707;28;21773;-67
2022/05/02 01:26:31;;;;;;;1.08;0.98;;;4.00;99.90;;;;;;5025401;28;20171;-66
2022/05/02 01:28:59;;;;;;;1.80;1.25;;;4.00;99.90;;;;;;5026100;28;20053;-64
2022/05/02 01:31:27;;;;;;;1.20;1.10;;;4.10;99.90;;;;;;5026923;28;20135;-65
2022/05/02 01:33:54;;;;;;;0.93;0.88;;;4.20;99.90;;;;;;5028927;28;20056;-67
2022/05/02 01:36:23;;;;;;;1.30;0.98;;;4.20;99.90;;;;;;5023583;28;20540;-66
2022/05/02 01:38:50;;;;;;;1.55;1.20;;;4.30;99.90;;;;;;5027389;28;20132;-66
2022/05/02 01:41:18;;;;;;;1.55;0.90;;;4.30;99.90;;;;;;5028386;28;20088;-65
2022/05/02 01:43:45;;;;;;;1.13;1.00;;;4.30;99.90;;;;;;5026631;28;20207;-65
2022/05/02 01:46:13;;;;;;;2.60;1.40;;;4.30;99.90;;;;;;5027361;28;20052;-65
2022/05/02 01:48:40;;;;;;;1.20;1.10;;;4.30;99.90;;;;;;5029019;28;20044;-67
2022/05/02 01:51:07;;;;;;;1.50;1.40;;;4.30;99.90;;;;;;5028552;28;20215;-66
2022/05/02 01:53:34;;;;;;;1.30;1.02;;;4.30;99.90;;;;;;5027894;28;20099;-65
2022/05/02 01:56:01;;;;;;;1.67;1.10;;;4.40;99.90;;;;;;5027195;28;20216;-65
2022/05/02 01:58:28;;;;;;;3.90;1.33;;;4.40;99.90;;;;;;5025819;28;20059;-64
2022/05/02 02:00:55;;;;;;;2.28;1.27;;;4.40;99.90;;;;;;5025822;28;20133;-64
2022/05/02 02:03:23;;;;;;;1.25;1.15;;;4.40;99.90;;;;;;5025166;28;20056;-68
2022/05/02 02:05:50;;;;;;;1.40;1.30;;;4.40;99.90;;;;;;5026315;28;20065;-68
2022/05/02 02:08:21;;;;;;;1.60;1.40;;;4.50;99.90;;;;;;5025536;28;20052;-65
2022/05/02 02:10:49;;;;;;;0.75;0.73;;;4.50;99.90;;;;;;5027690;28;20055;-68
2022/05/02 02:13:17;;;;;;;2.03;1.83;;;4.40;99.90;;;;;;5027176;28;20882;-67
2022/05/02 02:15:44;;;;;;;1.25;1.05;;;4.40;99.90;;;;;;5027203;28;20063;-68
2022/05/02 02:18:11;;;;;;;3.38;1.05;;;4.50;99.90;;;;;;5026435;28;20098;-66
2022/05/02 02:20:41;;;;;;;1.30;1.20;;;4.50;99.90;;;;;;5026399;28;20287;-65
2022/05/02 02:23:08;;;;;;;3.13;2.25;;;4.40;99.90;;;;;;5026993;28;21445;-68
2022/05/02 02:25:37;;;;;;;2.13;1.10;;;4.50;99.90;;;;;;5026731;28;21472;-67
2022/05/02 02:28:04;;;;;;;1.40;1.23;;;4.60;99.90;;;;;;5026535;28;20049;-66
2022/05/02 02:30:31;;;;;;;3.40;1.38;;;4.70;99.90;;;;;;5025966;28;20055;-66
2022/05/02 02:32:59;;;;;;;2.25;1.20;;;4.70;99.90;;;;;;5026146;28;20049;-68
2022/05/02 02:35:27;;;;;;;0.80;0.80;;;4.70;99.90;;;;;;5026883;28;20155;-67
2022/05/02 02:37:54;;;;;;;2.17;1.30;;;4.80;99.90;;;;;;5025508;28;20067;-64
2022/05/02 02:40:21;;;;;;;2.30;1.33;;;4.80;99.90;;;;;;5022946;28;20052;-66
2022/05/02 02:42:49;;;;;;;1.77;1.23;;;4.90;99.90;;;;;;5025608;28;20198;-66
2022/05/02 02:45:16;;;;;;;2.83;1.02;;;4.90;99.90;;;;;;5026751;28;20053;-68
2022/05/02 02:47:43;;;;;;;1.85;1.25;;;4.90;99.90;;;;;;5025026;28;20054;-66
2022/05/02 02:50:11;;;;;;;1.75;1.65;;;5.00;99.90;;;;;;5024905;28;20059;-66
2022/05/02 02:52:38;;;;;;;1.42;1.10;;;5.00;99.90;;;;;;5025957;28;20585;-64
2022/05/02 02:55:05;;;;;;;1.73;1.30;;;5.10;99.90;;;;;;5026612;28;20136;-67
2022/05/02 02:57:34;;;;;;;1.58;1.10;;;5.10;99.90;;;;;;5020581;28;20183;-65
2022/05/02 03:00:01;;;;;;;2.78;1.45;;;5.10;99.90;;;;;;5026164;28;20049;-67
2022/05/02 03:02:28;;;;;;;1.83;1.38;;;5.10;99.90;;;;;;5025136;28;20055;-70
2022/05/02 03:07:41;;;;;;;1.25;1.02;;;5.20;99.90;;;;;;5025898;28;20057;-66
2022/05/02 03:10:08;;;;;;;2.20;1.02;;;5.30;99.90;;;;;;5025145;28;20056;-66
2022/05/02 03:12:35;;;;;;;1.73;1.60;;;5.40;99.90;;;;;;5025367;28;20053;-66
2022/05/02 03:15:02;;;;;;;1.00;0.90;;;5.40;99.90;;;;;;5027916;28;20049;-65
2022/05/02 03:17:29;;;;;;;1.52;0.98;;;5.40;99.90;;;;;;5029383;28;20134;-66
2022/05/02 03:19:56;;;;;;;1.63;1.52;;;5.50;99.90;;;;;;5028884;28;21074;-65
2022/05/02 03:22:23;;;;;;;2.83;1.50;;;5.50;99.90;;;;;;5029554;28;20047;-64
2022/05/02 03:24:50;;;;;;;1.52;0.93;;;5.60;99.90;;;;;;5031468;28;20546;-69
2022/05/02 03:27:17;;;;;;;1.67;0.70;;;5.70;99.90;;;;;;5032054;28;20155;-66
2022/05/02 03:29:44;;;;;;;1.20;1.00;;;5.70;99.90;;;;;;5030907;28;20155;-67
2022/05/02 03:32:11;;;;;;;1.33;0.90;;;5.80;99.90;;;;;;5028719;28;20855;-65
2022/05/02 03:34:38;;;;;;;2.80;1.75;;;5.90;99.90;;;;;;5031199;28;20060;-64
2022/05/02 03:37:05;;;;;;;1.13;1.00;;;6.00;99.90;;;;;;5034638;28;20051;-65
2022/05/02 03:39:32;;;;;;;2.25;0.60;;;6.00;99.90;;;;;;5035540;28;20073;-67
2022/05/02 03:41:58;;;;;;;0.85;0.85;;;6.20;99.90;;;;;;5033270;28;20478;-67
2022/05/02 03:44:26;;;;;;;1.27;0.98;;;6.20;99.90;;;;;;5032914;28;20958;-64
2022/05/02 03:46:53;;;;;;;2.88;1.05;;;6.30;99.90;;;;;;5034740;28;20055;-66
2022/05/02 03:49:20;;;;;;;1.15;1.00;;;6.30;99.90;;;;;;5028191;28;20045;-65
2022/05/02 03:51:46;;;;;;;1.50;1.00;;;6.40;99.90;;;;;;5028223;28;20049;-65
2022/05/02 03:54:13;;;;;;;2.38;0.82;;;6.50;99.90;;;;;;5016457;28;20054;-67
2022/05/02 03:56:40;;;;;;;1.23;1.10;;;6.50;99.90;;;;;;5028852;28;20089;-66
2022/05/02 03:59:07;;;;;;;1.92;1.10;;;6.60;99.90;;;;;;5026865;28;20134;-66
2022/05/02 04:01:36;;;;;;;1.33;1.13;;;6.60;99.90;;;;;;5027166;28;21370;-67
2022/05/02 04:04:04;;;;;;;1.30;1.20;;;6.70;99.90;;;;;;5027932;28;20152;-67
2022/05/02 04:06:31;;;;;;;2.55;1.10;;;6.70;99.90;;;;;;5028098;28;20370;-67
2022/05/02 04:08:57;;;;;;;1.90;1.20;;;6.70;99.90;;;;;;5029854;28;20159;-66
2022/05/02 04:11:24;;;;;;;3.83;1.00;;;6.70;99.90;;;;;;5032460;28;20047;-68
2022/05/02 04:13:51;;;;;;;7.63;1.40;;;6.80;99.90;;;;;;5032602;28;20152;-67
2022/05/02 04:16:18;;;;;;;1.60;1.20;;;6.80;99.90;;;;;;5022448;28;20402;-66
2022/05/02 04:18:45;;;;;;;3.20;0.88;;;6.80;99.90;;;;;;5031590;28;20044;-64
2022/05/02 04:21:12;;;;;;;1.52;1.23;;;6.90;99.90;;;;;;5031302;28;20045;-68
2022/05/02 04:23:39;;;;;;;2.45;1.00;;;6.90;99.90;;;;;;5034245;28;20053;-66
2022/05/02 04:26:06;;;;;;;1.25;1.08;;;6.90;99.90;;;;;;5031986;28;20507;-68
2022/05/02 04:28:34;;;;;;;3.22;1.35;;;6.90;99.90;;;;;;5030247;28;20065;-66
2022/05/02 04:31:01;;;;;;;1.42;1.33;;;7.00;99.90;;;;;;5032410;28;20090;-67
2022/05/02 04:33:28;;;;;;;1.95;1.35;;;7.00;99.90;;;;;;5032556;28;20348;-68
2022/05/02 04:35:55;;;;;;;7.18;1.73;;;7.10;99.90;;;;;;5013650;28;20051;-65
2022/05/02 04:38:22;;;;;;;1.80;1.20;;;7.10;99.90;;;;;;5032001;28;20063;-67
2022/05/02 04:40:49;;;;;;;1.67;1.25;;;7.10;99.90;;;;;;5031842;28;20040;-68
2022/05/02 04:43:16;;;;;;;1.90;1.10;;;7.20;99.90;;;;;;5031248;28;20056;-68
2022/05/02 04:45:43;;;;;;;17.17;1.92;;;7.30;99.90;;;;;;5033302;28;20901;-68
2022/05/02 04:48:10;;;;;;;6.18;1.85;;;7.20;99.90;;;;;;5029517;28;20524;-67
2022/05/02 04:50:37;;;;;;;3.42;1.42;;;7.30;99.90;;;;;;5031261;28;20049;-65
2022/05/02 04:53:04;;;;;;;5.80;2.92;;;7.30;99.90;;;;;;5032352;28;20053;-68
2022/05/02 04:55:31;;;;;;;1.33;1.23;;;7.30;99.90;;;;;;5030833;28;20258;-67
2022/05/02 04:57:58;;;;;;;1.88;1.35;;;7.30;99.90;;;;;;5030069;28;20049;-68
2022/05/02 05:00:25;;;;;;;2.88;1.13;;;7.30;99.90;;;;;;5028543;28;20186;-65
2022/05/02 05:02:52;;;;;;;1.63;1.17;;;7.20;99.90;;;;;;5031280;28;20052;-67
2022/05/02 05:05:26;;;;;;;1.83;1.58;;;7.20;99.90;;;;;;5030437;28;20068;-66
2022/05/02 05:07:53;;;;;;;1.65;1.30;;;7.10;99.90;;;;;;5031560;28;20195;-67
2022/05/02 05:10:20;;;;;;;3.60;1.88;;;7.10;99.90;;;;;;5028617;28;20650;-67
2022/05/02 05:13:07;;;;;;;1.90;1.55;;;7.10;99.90;;;;;;5029231;28;20060;-65
2022/05/02 05:18:41;;;;;;;1.33;1.17;;;7.20;99.90;;;;;;5029499;28;20036;-68
2022/05/02 05:21:20;;;;;;;3.13;1.73;;;7.30;99.90;;;;;;5029142;28;20053;-65
2022/05/02 05:24:21;;;;;;;1.83;1.15;;;7.40;99.90;;;;;;5030607;28;20647;-69
2022/05/02 05:27:08;;;;;;;2.20;0.90;;;7.40;99.90;;;;;;5028417;28;20388;-67
2022/05/02 05:29:46;;;;;;;1.05;1.00;;;7.60;99.90;;;;;;5031023;28;20053;-67
2022/05/02 05:32:51;;;;;;;1.48;1.38;;;7.70;99.90;;;;;;5030428;28;20414;-69
2022/05/02 05:35:53;;;;;;;13.65;3.00;;;7.80;99.90;;;;;;5029046;28;20075;-69
2022/05/02 05:38:43;;;;;;;2.17;1.48;;;8.00;99.90;;;;;;5024511;28;20439;-66
2022/05/02 05:41:35;;;;;;;1.58;1.48;;;8.20;99.90;;;;;;5007425;28;20183;-66
2022/05/02 05:44:17;;;;;;;1.73;1.33;;;8.30;99.90;;;;;;5025554;28;21594;-65
2022/05/02 05:46:59;;;;;;;3.85;1.58;;;8.40;99.90;;;;;;5024681;28;20356;-67
2022/05/02 05:50:02;;;;;;;2.05;1.00;;;8.40;99.90;;;;;;5026717;28;20049;-66
2022/05/02 05:52:53;;;;;;;1.60;1.50;;;8.50;99.90;;;;;;5024941;28;20065;-65
2022/05/02 05:55:27;;;;;;;4.90;1.60;;;8.50;99.90;;;;;;5023722;28;20087;-68
2022/05/02 05:58:31;;;;;;;1.83;1.45;;;8.60;99.90;;;;;;5026634;28;20823;-66
2022/05/02 06:01:18;;;;;;;4.82;1.52;;;8.70;99.90;;;;;;5018144;28;20151;-67
2022/05/02 06:04:09;;;;;;;3.03;1.65;;;8.70;99.90;;;;;;5024334;28;20135;-66
2022/05/02 06:06:37;;;;;;;3.70;1.85;;;8.80;99.90;;;;;;5022456;28;20049;-67
2022/05/02 06:09:05;;;;;;;4.38;1.40;;;8.90;99.90;;;;;;5024512;28;20081;-68
2022/05/02 06:11:35;;;;;;;3.55;1.60;;;8.90;99.90;;;;;;5024664;28;20139;-66
2022/05/02 06:14:02;;;;;;;1.77;1.58;;;9.00;99.90;;;;;;5025640;28;20181;-66
2022/05/02 06:19:26;;;;;;;2.47;1.55;;;9.10;99.90;;;;;;5025125;28;20044;-70
2022/05/02 06:21:54;;;;;;;1.20;1.20;;;9.20;99.90;;;;;;5024724;28;20053;-67
2022/05/02 06:24:25;;;;;;;2.38;1.20;;;9.30;99.90;;;;;;5020206;28;20045;-68
2022/05/02 06:26:54;;;;;;;2.92;1.38;;;9.40;99.90;;;;;;5025141;28;20045;-66
2022/05/02 06:29:23;;;;;;;5.85;1.75;;;9.50;99.90;;;;;;5024077;28;20261;-68
2022/05/02 06:31:54;;;;;;;2.72;1.80;;;9.60;99.90;;;;;;5022405;28;20813;-67
2022/05/02 06:34:27;;;;;;;2.08;1.50;;;9.60;99.90;;;;;;5023612;28;20118;-70
2022/05/02 06:37:16;;;;;;;5.97;1.60;;;9.70;99.90;;;;;;5024851;28;20121;-65
2022/05/02 06:39:52;;;;;;;3.00;1.60;;;9.80;99.90;;;;;;5021932;28;20144;-67
2022/05/02 06:43:06;;;;;;;1.55;1.15;;;9.80;99.90;;;;;;5023282;28;20076;-68
2022/05/02 06:45:55;;;;;;;1.50;1.40;;;9.90;99.90;;;;;;5028198;28;20049;-65
2022/05/02 06:48:36;;;;;;;3.10;1.30;;;9.90;99.90;;;;;;5024300;28;20628;-68
2022/05/02 06:51:06;;;;;;;3.25;1.38;;;10.00;99.90;;;;;;5025256;28;20232;-68
2022/05/02 06:53:47;;;;;;;2.50;1.50;;;10.00;99.90;;;;;;5025696;28;20064;-66
2022/05/02 06:56:30;;;;;;;3.17;1.23;;;10.10;99.90;;;;;;5024822;28;20064;-69
2022/05/02 06:59:25;;;;;;;1.58;1.48;;;10.20;99.90;;;;;;5024706;28;20486;-69
2022/05/02 07:02:12;;;;;;;3.25;1.55;;;10.20;99.90;;;;;;5025195;28;20134;-68
2022/05/02 07:04:56;;;;;;;2.42;0.98;;;10.20;99.90;;;;;;5014114;28;20041;-70
2022/05/02 07:07:42;;;;;;;1.95;1.38;;;10.20;99.90;;;;;;5025614;28;20127;-66
2022/05/02 07:10:13;;;;;;;1.33;1.17;;;10.30;99.90;;;;;;5023615;28;20049;-67
2022/05/02 07:12:48;;;;;;;2.05;1.20;;;10.40;99.90;;;;;;5025520;28;20052;-67
2022/05/02 07:15:26;;;;;;;1.38;1.08;;;10.50;99.90;;;;;;5024701;28;20104;-66
2022/05/02 07:18:03;;;;;;;3.20;1.08;;;10.60;99.90;;;;;;5007589;28;20172;-67
2022/05/02 07:20:48;;;;;;;5.40;1.60;;;10.60;99.90;;;;;;5020774;28;20049;-69
2022/05/02 07:23:30;;;;;;;3.35;1.67;;;10.60;99.90;;;;;;5025823;28;20408;-69
2022/05/02 07:26:08;;;;;;;7.22;1.33;;;10.70;99.90;;;;;;5025977;28;20156;-67
2022/05/02 07:28:45;;;;;;;1.15;0.95;;;10.70;99.90;;;;;;5019511;28;20159;-67
2022/05/02 07:31:25;;;;;;;1.40;1.17;;;10.70;99.90;;;;;;5024737;28;20049;-68
2022/05/02 07:33:54;;;;;;;3.37;1.40;;;10.60;99.90;;;;;;5025492;28;21048;-70
2022/05/02 07:36:23;;;;;;;2.67;1.23;;;10.40;99.90;;;;;;5020272;28;20238;-68
2022/05/02 07:38:58;;;;;;;3.40;0.98;;;10.40;99.90;;;;;;5025173;28;20076;-68
2022/05/02 07:41:26;;;;;;;3.17;1.10;;;10.50;99.90;;;;;;5027185;28;20041;-70
2022/05/02 07:44:05;;;;;;;1.80;1.33;;;10.60;99.90;;;;;;5027058;28;20047;-65
2022/05/02 07:46:45;;;;;;;3.53;0.93;;;10.50;99.90;;;;;;5028037;28;20045;-69
2022/05/02 07:49:22;;;;;;;2.85;1.35;;;10.70;99.90;;;;;;5028383;28;20222;-70
2022/05/02 07:51:51;;;;;;;7.40;1.48;;;10.80;99.90;;;;;;5027825;28;20049;-67
2022/05/02 07:54:36;;;;;;;1.77;1.00;;;10.80;99.90;;;;;;5027024;28;20084;-68
2022/05/02 07:57:04;;;;;;;7.22;1.30;;;11.00;99.90;;;;;;5029225;28;20049;-65
2022/05/02 07:59:39;;;;;;;1.58;1.08;;;11.00;99.90;;;;;;5028627;28;20160;-67
2022/05/02 08:02:06;;;;;;;6.95;1.98;;;11.00;99.90;;;;;;5028131;28;20052;-69
2022/05/02 08:04:40;;;;;;;1.80;1.23;;;11.10;99.90;;;;;;5029072;28;20055;-71
2022/05/02 08:07:13;;;;;;;3.17;1.67;;;11.30;99.90;;;;;;5032836;28;20143;-69
2022/05/02 08:10:08;;;;;;;1.50;1.17;;;11.40;99.90;;;;;;5031430;28;20076;-69
2022/05/02 08:12:52;;;;;;;1.48;0.93;;;11.50;99.90;;;;;;5029010;28;21524;-66
2022/05/02 08:15:39;;;;;;;1.65;1.40;;;11.50;99.90;;;;;;5028535;28;20053;-66
2022/05/02 08:18:33;;;;;;;1.10;1.00;;;11.50;99.90;;;;;;5018897;28;20878;-67
2022/05/02 08:21:22;;;;;;;1.30;1.20;;;11.50;99.90;;;;;;5027275;28;20135;-68
2022/05/02 08:27:17;;;;;;;3.78;1.13;;;11.60;99.90;;;;;;5028021;28;20056;-66
2022/05/02 08:30:14;;;;;;;4.18;1.35;;;11.60;99.80;;;;;;5028192;28;20049;-69
2022/05/02 08:32:53;;;;;;;4.28;2.17;;;11.60;99.50;;;;;;5023561;28;20044;-66
2022/05/02 08:35:36;;;;;;;3.50;1.95;;;11.60;99.30;;;;;;5027131;28;20053;-65
2022/05/02 08:38:27;;;;;;;4.78;1.50;;;11.60;98.90;;;;;;5026714;28;20274;-66
2022/05/02 08:41:27;;;;;;;3.42;2.17;;;11.70;98.90;;;;;;5026267;28;20059;-65
2022/05/02 08:44:16;;;;;;;3.70;1.27;;;11.80;99.30;;;;;;5026767;28;20064;-65
2022/05/02 08:47:02;;;;;;;1.92;1.35;;;11.70;98.90;;;;;;5024401;28;20048;-70
2022/05/02 08:49:50;;;;;;;2.15;1.63;;;12.00;99.30;;;;;;5029160;28;20052;-68
2022/05/02 08:52:38;;;;;;;4.47;1.20;;;12.10;98.60;;;;;;5026389;28;20128;-69
2022/05/02 08:55:09;;;;;;;5.18;1.52;;;12.00;98.60;;;;;;5026083;28;20172;-68
2022/05/02 08:58:01;;;;;;;1.70;1.30;;;12.10;98.40;;;;;;5029732;28;20045;-65
2022/05/02 09:01:00;;;;;;;3.03;1.17;;;12.10;98.30;;;;;;5024675;28;20053;-68
2022/05/02 09:03:43;;;;;;;1.33;1.23;;;12.20;98.10;;;;;;5027652;28;20060;-66
2022/05/02 09:06:41;;;;;;;3.30;2.00;;;12.20;97.40;;;;;;5023760;28;20164;-68
2022/05/02 09:09:29;;;;;;;2.50;1.45;;;12.20;97.20;;;;;;5025151;28;20706;-69
2022/05/02 09:12:20;;;;;;;3.33;1.25;;;12.40;96.90;;;;;;5023337;28;20138;-70
2022/05/02 09:15:08;;;;;;;11.43;1.90;;;12.60;97.10;;;;;;5023757;28;20049;-66
2022/05/02 09:18:01;;;;;;;5.57;1.40;;;12.80;96.60;;;;;;5025286;28;21095;-68
2022/05/02 09:20:49;;;;;;;3.72;1.42;;;12.70;96.50;;;;;;5021934;28;20064;-67
2022/05/02 09:23:37;;;;;;;6.38;2.22;;;12.70;96.60;;;;;;5025990;28;21040;-67
2022/05/02 09:26:26;;;;;;;3.03;1.45;;;12.80;96.90;;;;;;5022945;28;20099;-69
2022/05/02 09:29:31;;;;;;;4.05;1.70;;;12.90;97.70;;;;;;5019101;28;20057;-70
2022/05/02 09:32:08;;;;;;;5.07;1.48;;;12.90;96.90;;;;;;5025999;28;20051;-70
2022/05/02 09:34:36;;;;;;;10.77;2.45;;;12.80;97.00;;;;;;5025139;28;20064;-65
2022/05/02 09:37:11;;;;;;;2.63;1.45;;;12.90;97.00;;;;;;5026329;28;20041;-66
2022/05/02 09:39:48;;;;;;;3.58;1.50;;;12.80;97.50;;;;;;5024071;28;20158;-68
2022/05/02 09:42:33;;;;;;;3.03;1.40;;;12.70;97.10;;;;;;5019550;28;20056;-69
2022/05/02 09:50:59;;;;;;;3.10;1.25;;;13.00;96.50;;;;;;5015277;28;20055;-68
2022/05/02 09:53:32;;;;;;;4.05;1.23;;;12.90;96.60;;;;;;5026245;28;20045;-67
2022/05/02 09:56:38;;;;;;;2.33;1.92;;;13.10;97.30;;;;;;5024430;28;20786;-66
2022/05/02 09:59:24;;;;;;;4.25;1.50;;;13.20;96.50;;;;;;5023796;28;20121;-65
2022/05/02 10:02:05;;;;;;;3.55;1.63;;;13.30;96.30;;;;;;5026227;28;20048;-66
2022/05/02 10:04:32;;;;;;;4.22;1.55;;;13.40;96.40;;;;;;5034131;28;20295;-69
2022/05/02 10:07:09;;;;;;;5.15;2.05;;;13.60;97.00;;;;;;5023486;28;20129;-68
2022/05/02 10:09:59;;;;;;;6.13;1.90;;;13.70;96.80;;;;;;5024938;28;20104;-70
2022/05/02 10:12:48;;;;;;;3.13;1.75;;;13.90;96.30;;;;;;5022701;28;20130;-65
2022/05/02 10:15:39;;;;;;;3.38;1.42;;;13.90;96.20;;;;;;5023131;28;20091;-68
2022/05/02 10:18:09;;;;;;;4.30;1.80;;;14.00;96.50;;;;;;5025986;28;20127;-67
2022/05/02 10:20:55;;;;;;;3.63;1.33;;;14.00;95.90;;;;;;5023886;28;20626;-68
2022/05/02 10:23:43;;;;;;;6.15;1.52;;;13.90;95.80;;;;;;5023816;28;20041;-66
2022/05/02 10:26:23;;;;;;;3.58;1.77;;;14.00;96.10;;;;;;5023300;28;20696;-69
2022/05/02 10:29:10;;;;;;;6.07;2.28;;;14.10;96.00;;;;;;5023418;28;20045;-69
2022/05/02 10:31:39;;;;;;;3.67;1.10;;;14.30;95.70;;;;;;5024541;28;20068;-69
2022/05/02 10:34:09;;;;;;;7.60;1.80;;;14.40;94.70;;;;;;5024361;28;20067;-65
2022/05/02 10:36:40;;;;;;;4.28;1.60;;;14.40;94.60;;;;;;5024243;28;20145;-69
2022/05/02 10:39:32;;;;;;;1.83;1.17;;;14.50;94.00;;;;;;5024652;28;20060;-68
2022/05/02 10:42:03;;;;;;;1.50;1.15;;;14.30;94.70;;;;;;5027085;28;20757;-69
2022/05/02 10:44:47;;;;;;;3.92;1.33;;;14.40;94.30;;;;;;5023468;28;20574;-70
2022/05/02 10:47:20;;;;;;;1.60;1.30;;;14.40;93.70;;;;;;5021536;28;20068;-68
2022/05/02 10:50:08;;;;;;;1.88;1.42;;;14.40;94.10;;;;;;5026151;28;20700;-70
2022/05/02 10:52:44;;;;;;;1.60;1.27;;;14.50;93.80;;;;;;5026524;28;20126;-67
2022/05/02 10:55:24;;;;;;;2.75;1.25;;;14.60;93.80;;;;;;5024991;28;20144;-66
2022/05/02 10:57:53;;;;;;;5.10;1.67;;;14.50;93.40;;;;;;5023161;28;20079;-68
2022/05/02 11:00:22;;;;;;;3.53;2.00;;;14.60;93.20;;;;;;5021091;28;20103;-69
2022/05/02 11:03:08;;;;;;;3.95;1.42;;;14.50;93.10;;;;;;5024761;28;20049;-67
2022/05/02 11:05:48;;;;;;;2.75;1.48;;;14.60;93.60;;;;;;5026125;28;21087;-68
2022/05/02 11:08:26;;;;;;;2.67;1.40;;;14.70;93.40;;;;;;5024228;28;20164;-67
2022/05/02 11:11:05;;;;;;;3.53;1.92;;;14.90;93.00;;;;;;5025212;28;20175;-69
2022/05/02 11:13:45;;;;;;;4.93;1.80;;;15.00;92.70;;;;;;5026011;28;20059;-69
2022/05/02 11:16:30;;;;;;;2.58;1.20;;;14.90;92.90;;;;;;5020013;28;20947;-71
2022/05/02 11:21:58;;;;;;;3.92;1.55;;;15.10;93.10;;;;;;5024714;28;20103;-68
2022/05/02 11:24:41;;;;;;;1.05;0.70;;;15.10;92.80;;;;;;5025531;28;20077;-71
2022/05/02 11:27:21;;;;;;;1.38;1.27;;;15.00;92.50;;;;;;5026124;28;20053;-68
2022/05/02 11:29:51;;;;;;;3.05;0.95;;;15.10;93.20;;;;;;5027421;28;20208;-67
2022/05/02 11:32:24;;;;;;;;;;;15.20;93.00;;;;;;5025452;28;20064;-70
2022/05/02 11:35:21;;;;;;;1.63;1.40;;;15.50;93.20;;;;;;5027084;28;19968;-68
2022/05/02 11:38:14;;;;;;;3.00;1.10;;;15.50;92.60;;;;;;4995320;28;21198;-65
2022/05/02 11:40:50;;;;;;;5.47;1.58;;;15.50;92.10;;;;;;5004718;28;20160;-72
2022/05/02 11:43:24;;;;;;;5.18;1.40;;;15.40;92.10;;;;;;5005613;28;20082;-74
2022/05/02 11:46:20;;;;;;;2.90;1.10;;;15.50;92.50;;;;;;5003853;28;20172;-68
2022/05/02 11:48:53;;;;;;;5.93;1.98;;;15.40;92.20;;;;;;5007353;28;20061;-66
2022/05/02 11:51:30;;;;;;;4.18;1.63;;;15.40;92.00;;;;;;5003476;28;20394;-72
2022/05/02 11:54:01;;;;;;;2.72;1.25;;;15.40;91.40;;;;;;5009631;28;20234;-71
2022/05/02 11:56:41;;;;;;;2.42;1.35;;;15.50;92.30;;;;;;5005542;28;20194;-67
2022/05/02 11:59:12;;;;;;;4.13;1.48;;;15.40;91.40;;;;;;4998286;28;20038;-68
2022/05/02 12:01:41;;;;;;;5.90;1.48;;;15.30;91.00;;;;;;5001805;28;20052;-74
2022/05/02 12:04:13;;;;;;;1.60;1.23;;;15.20;92.00;;;;;;5004882;28;20140;-72
2022/05/02 12:06:50;;;;;;;4.50;1.88;;;15.50;91.70;;;;;;4997507;28;20060;-71
2022/05/02 12:09:29;;;;;;;9.10;1.55;;;15.60;92.20;;;;;;5001453;28;20073;-65
2022/05/02 12:11:58;;;;;;;2.40;1.13;;;15.70;92.20;;;;;;5003960;28;20048;-72
2022/05/02 12:14:25;;;;;;;1.73;1.55;;;15.70;91.80;;;;;;5001117;28;20041;-66
2022/05/02 12:17:12;;;;;;;3.60;1.73;;;15.80;92.10;;;;;;4999858;28;21385;-71
2022/05/02 12:19:41;;;;;;;2.67;1.50;;;15.70;91.90;;;;;;5001159;28;20056;-72
2022/05/02 12:22:22;;;;;;;3.22;1.30;;;15.70;92.10;;;;;;4996813;28;20053;-69
2022/05/02 12:24:54;;;;;;;2.53;1.63;;;15.80;92.20;;;;;;5000568;28;20188;-71
2022/05/02 12:27:22;;;;;;;3.45;1.83;;;15.70;92.30;;;;;;4989575;28;20196;-70
2022/05/02 12:29:58;;;;;;;4.25;2.15;;;15.50;92.30;;;;;;5001363;28;20145;-71
2022/05/02 12:32:27;;;;;;;6.38;2.13;;;15.50;92.10;;;;;;4997598;28;20877;-69
2022/05/02 12:34:58;;;;;;;3.30;1.85;;;15.60;93.40;;;;;;5001662;28;20053;-71
2022/05/02 12:37:32;;;;;;;5.75;2.25;;;15.80;92.90;;;;;;5016749;28;20045;-72
2022/05/02 12:40:13;;;;;;;7.00;2.00;;;15.70;92.50;;;;;;5027044;28;20163;-70
2022/05/02 12:42:55;;;;;;;7.88;2.72;;;15.60;93.00;;;;;;5026900;28;20056;-71
2022/05/02 12:45:23;;;;;;;2.80;2.42;;;15.60;92.50;;;;;;5028697;28;20534;-69
2022/05/02 12:48:05;;;;;;;3.75;2.15;;;15.50;93.30;;;;;;5025013;28;20075;-66
2022/05/02 12:50:44;;;;;;;4.50;2.20;;;15.80;93.60;;;;;;5027801;28;20175;-68
2022/05/02 12:54:09;;;;;;;9.85;2.90;;;15.60;92.40;;;;;;5024504;28;20131;-71
2022/05/02 12:56:07;;;;;;;4.63;2.30;;;15.40;92.70;;;;;;5025944;28;20065;-68
2022/05/02 13:01:22;;;;;;;4.28;2.33;;;15.30;92.90;;;;;;5027061;28;20138;-73
2022/05/02 13:04:00;;;;;;;5.80;2.92;;;15.60;93.80;;;;;;5027958;28;20142;-70
2022/05/02 13:06:27;;;;;;;5.32;2.83;;;15.80;93.20;;;;;;5012077;28;20061;-73
2022/05/02 13:09:12;;;;;;;3.63;2.58;;;15.50;92.90;;;;;;5018653;28;20049;-71
2022/05/02 13:11:39;;;;;;;3.25;2.75;;;15.60;92.90;;;;;;5024434;28;20086;-72
2022/05/02 13:14:07;;;;;;;4.43;2.45;;;15.50;93.20;;;;;;5027462;28;20781;-68
2022/05/02 13:16:43;;;;;;;9.88;2.55;;;15.60;93.60;;;;;;5021465;28;21330;-73
2022/05/02 13:19:11;;;;;;;3.53;2.33;;;15.70;93.00;;;;;;5017344;28;20139;-72
2022/05/02 13:21:38;;;;;;;8.25;2.25;;;15.50;93.80;;;;;;5024455;28;20171;-71
2022/05/02 13:24:08;;;;;;;4.28;2.30;;;15.40;93.80;;;;;;5023908;28;20077;-67
2022/05/02 13:26:50;;;;;;;8.70;2.47;;;15.50;94.50;;;;;;5025597;28;20151;-72
2022/05/02 13:30:00;;;;;;;6.18;2.45;;;15.50;94.00;;;;;;5026470;28;20045;-68
2022/05/02 13:32:52;;;;;;;3.40;2.25;;;15.50;94.00;;;;;;5010962;28;21255;-71
2022/05/02 13:35:26;;;;;;;3.47;2.00;;;15.60;94.40;;;;;;5026134;28;20060;-70
2022/05/02 13:37:54;;;;;;;7.93;2.28;;;15.60;94.00;;;;;;5024474;28;20049;-71
2022/05/02 13:40:35;;;;;;;6.70;2.35;;;15.90;93.80;;;;;;5020570;28;20044;-67
2022/05/02 13:43:08;;;;;;;;;;;16.10;93.90;;;;;;5027045;28;20122;-74
2022/05/02 13:46:01;;;;;;;5.05;2.30;;;16.10;93.40;;;;;;5026374;28;21279;-70
2022/05/02 13:48:28;;;;;;;5.35;2.67;;;16.00;93.70;;;;;;5022903;28;20060;-68
2022/05/02 13:51:09;;;;;;;3.28;2.38;;;15.70;93.90;;;;;;5023573;28;20064;-67
2022/05/02 13:53:42;;;;;;;;;;;15.50;93.60;;;;;;5024565;28;20052;-72
2022/05/02 13:56:21;;;;;;;5.10;2.75;;;15.50;94.00;;;;;;5022846;28;19975;-69
2022/05/02 13:58:52;;;;;;;7.25;2.53;;;15.60;94.10;;;;;;5021845;28;20084;-72